sensor_id;sensor_type;location;lat;lon;timestamp;pressure;altitude;pressure_sealevel;temperature;humidity
64078;BME280;51039;49.696;10.808;2023-04-04T00:00:25;99361.31;;;-1.48;69.69
64078;BME280;51039;49.696;10.808;2023-04-04T00:02:50;99360.38;;;-1.47;69.50
64078;BME280;51039;49.696;10.808;2023-04-04T00:05:16;99368.25;;;-1.48;69.66
64078;BME280;51039;49.696;10.808;2023-04-04T00:07:44;99354.94;;;-1.56;70.63
64078;BME280;51039;49.696;10.808;2023-04-04T00:10:10;99354.53;;;-1.50;69.56
64078;BME280;51039;49.696;10.808;2023-04-04T00:12:35;99354.03;;;-1.43;69.13
64078;BME280;51039;49.696;10.808;2023-04-04T00:15:01;99361.53;;;-1.38;68.95
64078;BME280;51039;49.696;10.808;2023-04-04T00:17:26;99352.78;;;-1.37;68.42
64078;BME280;51039;49.696;10.808;2023-04-04T00:19:52;99349.56;;;-1.41;68.17
64078;BME280;51039;49.696;10.808;2023-04-04T00:22:17;99352.78;;;-1.37;68.52
64078;BME280;51039;49.696;10.808;2023-04-04T00:24:42;99350.72;;;-1.32;68.05
64078;BME280;51039;49.696;10.808;2023-04-04T00:27:08;99342.00;;;-1.31;67.43
64078;BME280;51039;49.696;10.808;2023-04-04T00:29:33;99340.75;;;-1.25;67.31
64078;BME280;51039;49.696;10.808;2023-04-04T00:31:59;99340.44;;;-1.21;67.14
64078;BME280;51039;49.696;10.808;2023-04-04T00:34:25;99339.72;;;-1.23;67.22
64078;BME280;51039;49.696;10.808;2023-04-04T00:36:50;99339.63;;;-1.21;67.63
64078;BME280;51039;49.696;10.808;2023-04-04T00:39:16;99337.31;;;-1.26;69.09
64078;BME280;51039;49.696;10.808;2023-04-04T00:41:42;99335.13;;;-1.32;69.67
64078;BME280;51039;49.696;10.808;2023-04-04T00:44:07;99341.25;;;-1.33;69.66
64078;BME280;51039;49.696;10.808;2023-04-04T00:46:33;99340.88;;;-1.27;69.91
64078;BME280;51039;49.696;10.808;2023-04-04T00:48:58;99331.09;;;-1.23;70.21
64078;BME280;51039;49.696;10.808;2023-04-04T00:51:23;99335.78;;;-1.15;69.42
64078;BME280;51039;49.696;10.808;2023-04-04T00:53:49;99334.63;;;-1.11;69.43
64078;BME280;51039;49.696;10.808;2023-04-04T00:56:15;99330.16;;;-1.09;69.17
64078;BME280;51039;49.696;10.808;2023-04-04T00:58:41;99338.06;;;-0.98;69.14
64078;BME280;51039;49.696;10.808;2023-04-04T01:01:07;99327.22;;;-0.92;68.61
64078;BME280;51039;49.696;10.808;2023-04-04T01:03:34;99327.94;;;-0.90;68.93
64078;BME280;51039;49.696;10.808;2023-04-04T01:06:01;99333.69;;;-0.85;68.48
64078;BME280;51039;49.696;10.808;2023-04-04T01:08:26;99330.75;;;-0.80;67.18
64078;BME280;51039;49.696;10.808;2023-04-04T01:10:53;99330.56;;;-0.77;66.61
64078;BME280;51039;49.696;10.808;2023-04-04T01:13:19;99330.31;;;-0.74;66.52
64078;BME280;51039;49.696;10.808;2023-04-04T01:15:45;99329.06;;;-0.68;65.79
64078;BME280;51039;49.696;10.808;2023-04-04T01:18:11;99326.13;;;-0.64;65.42
64078;BME280;51039;49.696;10.808;2023-04-04T01:20:43;99331.66;;;-0.55;65.20
64078;BME280;51039;49.696;10.808;2023-04-04T01:23:16;99319.56;;;-0.56;65.10
64078;BME280;51039;49.696;10.808;2023-04-04T01:25:42;99329.66;;;-0.52;64.87
64078;BME280;51039;49.696;10.808;2023-04-04T01:28:08;99314.03;;;-0.52;64.80
64078;BME280;51039;49.696;10.808;2023-04-04T01:30:34;99316.41;;;-0.49;64.72
64078;BME280;51039;49.696;10.808;2023-04-04T01:33:02;99318.81;;;-0.46;64.86
64078;BME280;51039;49.696;10.808;2023-04-04T01:35:58;99315.50;;;-0.48;65.14
64078;BME280;51039;49.696;10.808;2023-04-04T01:38:52;99318.09;;;-0.48;65.22
64078;BME280;51039;49.696;10.808;2023-04-04T01:41:37;99318.00;;;-0.46;65.25
64078;BME280;51039;49.696;10.808;2023-04-04T01:44:03;99314.31;;;-0.44;64.84
64078;BME280;51039;49.696;10.808;2023-04-04T01:46:29;99301.53;;;-0.47;64.90
64078;BME280;51039;49.696;10.808;2023-04-04T01:48:55;99313.59;;;-0.46;64.49
64078;BME280;51039;49.696;10.808;2023-04-04T01:51:20;99307.69;;;-0.48;64.63
64078;BME280;51039;49.696;10.808;2023-04-04T01:53:46;99308.16;;;-0.43;64.20
64078;BME280;51039;49.696;10.808;2023-04-04T01:56:11;99314.22;;;-0.42;64.14
64078;BME280;51039;49.696;10.808;2023-04-04T01:58:37;99308.28;;;-0.44;64.41
64078;BME280;51039;49.696;10.808;2023-04-04T02:01:02;99307.22;;;-0.42;64.76
64078;BME280;51039;49.696;10.808;2023-04-04T02:03:27;99305.56;;;-0.43;64.08
64078;BME280;51039;49.696;10.808;2023-04-04T02:05:53;99311.47;;;-0.41;64.07
64078;BME280;51039;49.696;10.808;2023-04-04T02:08:18;99310.34;;;-0.36;64.93
64078;BME280;51039;49.696;10.808;2023-04-04T02:10:44;99312.72;;;-0.33;64.93
64078;BME280;51039;49.696;10.808;2023-04-04T02:13:09;99319.59;;;-0.32;64.50
64078;BME280;51039;49.696;10.808;2023-04-04T02:15:35;99311.78;;;-0.32;64.25
64078;BME280;51039;49.696;10.808;2023-04-04T02:18:00;99310.13;;;-0.33;64.30
64078;BME280;51039;49.696;10.808;2023-04-04T02:20:26;99313.69;;;-0.34;64.15
64078;BME280;51039;49.696;10.808;2023-04-04T02:22:51;99309.28;;;-0.34;64.09
64078;BME280;51039;49.696;10.808;2023-04-04T02:25:17;99305.16;;;-0.36;64.64
64078;BME280;51039;49.696;10.808;2023-04-04T02:27:43;99310.00;;;-0.32;64.20
64078;BME280;51039;49.696;10.808;2023-04-04T02:30:09;99298.78;;;-0.32;64.24
64078;BME280;51039;49.696;10.808;2023-04-04T02:32:35;99298.53;;;-0.29;64.77
64078;BME280;51039;49.696;10.808;2023-04-04T02:35:03;99288.69;;;-0.37;65.13
64078;BME280;51039;49.696;10.808;2023-04-04T02:37:28;99290.91;;;-0.44;65.04
64078;BME280;51039;49.696;10.808;2023-04-04T02:39:54;99285.53;;;-0.53;64.91
64078;BME280;51039;49.696;10.808;2023-04-04T02:42:19;99285.34;;;-0.63;64.83
64078;BME280;51039;49.696;10.808;2023-04-04T02:44:45;99293.34;;;-0.66;65.27
64078;BME280;51039;49.696;10.808;2023-04-04T02:47:10;99293.06;;;-0.74;65.69
64078;BME280;51039;49.696;10.808;2023-04-04T02:49:36;99284.75;;;-0.80;65.65
64078;BME280;51039;49.696;10.808;2023-04-04T02:52:01;99286.00;;;-0.85;65.58
64078;BME280;51039;49.696;10.808;2023-04-04T02:54:26;99282.91;;;-0.90;65.81
64078;BME280;51039;49.696;10.808;2023-04-04T02:56:52;99283.94;;;-0.93;65.91
64078;BME280;51039;49.696;10.808;2023-04-04T02:59:17;99288.41;;;-0.95;66.23
64078;BME280;51039;49.696;10.808;2023-04-04T03:01:43;99286.25;;;-1.01;66.71
64078;BME280;51039;49.696;10.808;2023-04-04T03:04:08;99284.19;;;-1.09;66.84
64078;BME280;51039;49.696;10.808;2023-04-04T03:06:34;99284.28;;;-1.10;67.23
64078;BME280;51039;49.696;10.808;2023-04-04T03:08:59;99283.56;;;-1.12;67.61
64078;BME280;51039;49.696;10.808;2023-04-04T03:11:25;99284.81;;;-1.18;67.93
64078;BME280;51039;49.696;10.808;2023-04-04T03:13:50;99283.97;;;-1.19;67.96
64078;BME280;51039;49.696;10.808;2023-04-04T03:16:15;99283.34;;;-1.22;68.05
64078;BME280;51039;49.696;10.808;2023-04-04T03:18:41;99289.81;;;-1.28;68.54
64078;BME280;51039;49.696;10.808;2023-04-04T03:21:07;99279.09;;;-1.36;69.14
64078;BME280;51039;49.696;10.808;2023-04-04T03:23:32;99286.38;;;-1.41;69.23
64078;BME280;51039;49.696;10.808;2023-04-04T03:25:58;99285.75;;;-1.45;69.76
64078;BME280;51039;49.696;10.808;2023-04-04T03:28:23;99280.88;;;-1.49;69.43
64078;BME280;51039;49.696;10.808;2023-04-04T03:30:48;99275.66;;;-1.49;69.01
64078;BME280;51039;49.696;10.808;2023-04-04T03:33:14;99282.31;;;-1.45;69.05
64078;BME280;51039;49.696;10.808;2023-04-04T03:35:39;99277.31;;;-1.48;69.19
64078;BME280;51039;49.696;10.808;2023-04-04T03:38:06;99283.16;;;-1.58;68.89
64078;BME280;51039;49.696;10.808;2023-04-04T03:40:32;99277.25;;;-1.60;68.83
64078;BME280;51039;49.696;10.808;2023-04-04T03:42:57;99282.31;;;-1.58;68.88
64078;BME280;51039;49.696;10.808;2023-04-04T03:45:22;99280.66;;;-1.59;69.32
64078;BME280;51039;49.696;10.808;2023-04-04T03:47:48;99275.47;;;-1.59;68.71
64078;BME280;51039;49.696;10.808;2023-04-04T03:50:13;99276.06;;;-1.68;69.21
64078;BME280;51039;49.696;10.808;2023-04-04T03:52:39;99279.00;;;-1.73;69.89
64078;BME280;51039;49.696;10.808;2023-04-04T03:55:05;99282.91;;;-1.80;69.91
64078;BME280;51039;49.696;10.808;2023-04-04T03:57:34;99278.75;;;-1.83;70.27
64078;BME280;51039;49.696;10.808;2023-04-04T04:00:00;99284.47;;;-1.90;70.30
64078;BME280;51039;49.696;10.808;2023-04-04T04:02:28;99281.13;;;-1.92;70.49
64078;BME280;51039;49.696;10.808;2023-04-04T04:04:53;99284.56;;;-1.92;70.40
64078;BME280;51039;49.696;10.808;2023-04-04T04:07:18;99280.28;;;-1.93;70.41
64078;BME280;51039;49.696;10.808;2023-04-04T04:09:44;99272.72;;;-1.96;70.05
64078;BME280;51039;49.696;10.808;2023-04-04T04:12:09;99269.91;;;-1.93;70.29
64078;BME280;51039;49.696;10.808;2023-04-04T04:14:34;99274.38;;;-1.95;70.06
64078;BME280;51039;49.696;10.808;2023-04-04T04:17:00;99272.72;;;-1.96;70.23
64078;BME280;51039;49.696;10.808;2023-04-04T04:19:25;99274.78;;;-2.01;70.03
64078;BME280;51039;49.696;10.808;2023-04-04T04:21:50;99268.03;;;-2.04;70.18
64078;BME280;51039;49.696;10.808;2023-04-04T04:24:16;99265.19;;;-2.13;70.23
64078;BME280;51039;49.696;10.808;2023-04-04T04:26:41;99267.06;;;-2.15;70.46
64078;BME280;51039;49.696;10.808;2023-04-04T04:29:06;99270.38;;;-2.13;70.68
64078;BME280;51039;49.696;10.808;2023-04-04T04:31:32;99272.25;;;-2.15;70.63
64078;BME280;51039;49.696;10.808;2023-04-04T04:33:57;99272.03;;;-2.12;70.26
64078;BME280;51039;49.696;10.808;2023-04-04T04:36:23;99271.22;;;-2.13;70.15
64078;BME280;51039;49.696;10.808;2023-04-04T04:38:48;99270.66;;;-2.18;70.56
64078;BME280;51039;49.696;10.808;2023-04-04T04:41:13;99271.41;;;-2.16;70.44
64078;BME280;51039;49.696;10.808;2023-04-04T04:43:39;99275.75;;;-2.17;70.51
64078;BME280;51039;49.696;10.808;2023-04-04T04:46:05;99274.84;;;-2.15;70.96
64078;BME280;51039;49.696;10.808;2023-04-04T04:48:32;99273.34;;;-2.20;70.86
64078;BME280;51039;49.696;10.808;2023-04-04T04:50:58;99272.53;;;-2.20;71.09
64078;BME280;51039;49.696;10.808;2023-04-04T04:53:23;99269.13;;;-2.21;71.33
64078;BME280;51039;49.696;10.808;2023-04-04T04:55:48;99265.38;;;-2.17;70.91
64078;BME280;51039;49.696;10.808;2023-04-04T04:58:16;99272.25;;;-2.15;70.62
64078;BME280;51039;49.696;10.808;2023-04-04T05:00:41;99268.41;;;-2.10;70.74
64078;BME280;51039;49.696;10.808;2023-04-04T05:03:07;99270.81;;;-2.07;70.36
64078;BME280;51039;49.696;10.808;2023-04-04T05:05:32;99271.63;;;-2.06;70.38
64078;BME280;51039;49.696;10.808;2023-04-04T05:07:59;99267.72;;;-1.99;69.87
64078;BME280;51039;49.696;10.808;2023-04-04T05:10:26;99272.84;;;-1.85;69.64
64078;BME280;51039;49.696;10.808;2023-04-04T05:12:51;99271.81;;;-1.69;69.09
64078;BME280;51039;49.696;10.808;2023-04-04T05:15:17;99276.81;;;-1.53;69.07
64078;BME280;51039;49.696;10.808;2023-04-04T05:17:42;99276.94;;;-1.42;68.47
64078;BME280;51039;49.696;10.808;2023-04-04T05:20:08;99281.59;;;-1.34;68.78
64078;BME280;51039;49.696;10.808;2023-04-04T05:22:34;99277.63;;;-1.27;68.43
64078;BME280;51039;49.696;10.808;2023-04-04T05:24:59;99275.47;;;-1.33;68.70
64078;BME280;51039;49.696;10.808;2023-04-04T05:27:25;99275.88;;;-1.27;68.56
64078;BME280;51039;49.696;10.808;2023-04-04T05:29:50;99283.34;;;-1.22;68.45
64078;BME280;51039;49.696;10.808;2023-04-04T05:32:16;99282.00;;;-1.28;68.35
64078;BME280;51039;49.696;10.808;2023-04-04T05:34:41;99275.88;;;-1.27;68.95
64078;BME280;51039;49.696;10.808;2023-04-04T05:37:07;99285.34;;;-1.26;69.92
64078;BME280;51039;49.696;10.808;2023-04-04T05:39:33;99282.63;;;-1.37;71.08
64078;BME280;51039;49.696;10.808;2023-04-04T05:41:58;99288.97;;;-1.41;71.66
64078;BME280;51039;49.696;10.808;2023-04-04T05:44:23;99285.44;;;-1.40;72.13
64078;BME280;51039;49.696;10.808;2023-04-04T05:46:49;99282.84;;;-1.40;72.17
64078;BME280;51039;49.696;10.808;2023-04-04T05:49:15;99280.69;;;-1.46;71.77
64078;BME280;51039;49.696;10.808;2023-04-04T05:51:41;99287.31;;;-1.42;71.72
64078;BME280;51039;49.696;10.808;2023-04-04T05:54:06;99289.09;;;-1.30;71.00
64078;BME280;51039;49.696;10.808;2023-04-04T05:56:32;99287.63;;;-1.21;70.84
64078;BME280;51039;49.696;10.808;2023-04-04T05:58:58;99282.72;;;-1.13;70.65
64078;BME280;51039;49.696;10.808;2023-04-04T06:01:23;99288.56;;;-1.09;70.75
64078;BME280;51039;49.696;10.808;2023-04-04T06:03:49;99290.94;;;-1.06;70.59
64078;BME280;51039;49.696;10.808;2023-04-04T06:06:15;99297.09;;;-1.07;70.63
64078;BME280;51039;49.696;10.808;2023-04-04T06:08:40;99287.69;;;-0.97;70.39
64078;BME280;51039;49.696;10.808;2023-04-04T06:11:05;99293.91;;;-0.87;69.74
64078;BME280;51039;49.696;10.808;2023-04-04T06:13:31;99291.28;;;-0.74;69.42
64078;BME280;51039;49.696;10.808;2023-04-04T06:15:56;99288.44;;;-0.58;69.08
64078;BME280;51039;49.696;10.808;2023-04-04T06:18:21;99291.56;;;-0.53;67.28
64078;BME280;51039;49.696;10.808;2023-04-04T06:20:46;99295.66;;;-0.37;67.42
64078;BME280;51039;49.696;10.808;2023-04-04T06:23:12;99294.09;;;-0.16;68.79
64078;BME280;51039;49.696;10.808;2023-04-04T06:25:37;99294.72;;;1.04;67.96
64078;BME280;51039;49.696;10.808;2023-04-04T06:28:03;99293.78;;;1.27;62.92
64078;BME280;51039;49.696;10.808;2023-04-04T06:30:29;99289.91;;;1.65;61.41
64078;BME280;51039;49.696;10.808;2023-04-04T06:32:54;99290.25;;;3.79;54.73
64078;BME280;51039;49.696;10.808;2023-04-04T06:35:21;99290.69;;;5.45;49.32
64078;BME280;51039;49.696;10.808;2023-04-04T06:37:46;99290.66;;;6.89;46.01
64078;BME280;51039;49.696;10.808;2023-04-04T06:40:12;99291.03;;;7.02;44.54
64078;BME280;51039;49.696;10.808;2023-04-04T06:42:38;99288.06;;;7.40;42.76
64078;BME280;51039;49.696;10.808;2023-04-04T06:45:03;99291.75;;;7.55;42.63
64078;BME280;51039;49.696;10.808;2023-04-04T06:47:30;99294.16;;;7.06;42.92
64078;BME280;51039;49.696;10.808;2023-04-04T06:49:56;99281.59;;;7.26;42.94
64078;BME280;51039;49.696;10.808;2023-04-04T06:52:23;99298.63;;;7.05;43.01
64078;BME280;51039;49.696;10.808;2023-04-04T06:54:49;99298.16;;;6.58;44.17
64078;BME280;51039;49.696;10.808;2023-04-04T06:57:14;99303.97;;;6.87;43.38
64078;BME280;51039;49.696;10.808;2023-04-04T06:59:40;99298.13;;;6.76;44.35
64078;BME280;51039;49.696;10.808;2023-04-04T07:02:06;99295.63;;;7.00;43.21
64078;BME280;51039;49.696;10.808;2023-04-04T07:04:31;99300.09;;;7.08;43.78
64078;BME280;51039;49.696;10.808;2023-04-04T07:06:59;99296.13;;;7.04;44.01
64078;BME280;51039;49.696;10.808;2023-04-04T07:09:24;99294.88;;;7.59;43.34
64078;BME280;51039;49.696;10.808;2023-04-04T07:11:49;99296.97;;;8.14;41.85
64078;BME280;51039;49.696;10.808;2023-04-04T07:14:15;99289.53;;;8.75;40.91
64078;BME280;51039;49.696;10.808;2023-04-04T07:16:40;99300.28;;;8.24;41.12
64078;BME280;51039;49.696;10.808;2023-04-04T07:19:05;99298.63;;;8.07;41.36
64078;BME280;51039;49.696;10.808;2023-04-04T07:21:30;99301.25;;;8.40;40.84
64078;BME280;51039;49.696;10.808;2023-04-04T07:23:56;99299.63;;;8.63;40.60
64078;BME280;51039;49.696;10.808;2023-04-04T07:26:21;99293.34;;;8.73;40.18
64078;BME280;51039;49.696;10.808;2023-04-04T07:28:47;99292.06;;;8.60;40.49
64078;BME280;51039;49.696;10.808;2023-04-04T07:31:12;99297.31;;;8.52;40.86
64078;BME280;51039;49.696;10.808;2023-04-04T07:33:38;99297.50;;;8.42;40.45
64078;BME280;51039;49.696;10.808;2023-04-04T07:36:04;99286.72;;;9.64;38.33
64078;BME280;51039;49.696;10.808;2023-04-04T07:38:29;99296.06;;;9.52;38.98
64078;BME280;51039;49.696;10.808;2023-04-04T07:40:55;99286.00;;;9.78;38.77
64078;BME280;51039;49.696;10.808;2023-04-04T07:43:20;99293.38;;;8.48;40.38
64078;BME280;51039;49.696;10.808;2023-04-04T07:45:45;99295.19;;;9.28;39.71
64078;BME280;51039;49.696;10.808;2023-04-04T07:48:11;99297.94;;;8.21;40.66
64078;BME280;51039;49.696;10.808;2023-04-04T07:50:37;99292.84;;;8.28;39.56
64078;BME280;51039;49.696;10.808;2023-04-04T07:53:02;99301.47;;;9.19;37.76
64078;BME280;51039;49.696;10.808;2023-04-04T07:55:27;99293.00;;;8.84;37.92
64078;BME280;51039;49.696;10.808;2023-04-04T07:57:53;99293.19;;;8.58;38.52
64078;BME280;51039;49.696;10.808;2023-04-04T08:00:18;99301.78;;;9.32;37.77
64078;BME280;51039;49.696;10.808;2023-04-04T08:02:50;99302.94;;;9.21;37.57
64078;BME280;51039;49.696;10.808;2023-04-04T08:05:17;99292.00;;;8.11;39.79
64078;BME280;51039;49.696;10.808;2023-04-04T08:07:42;99289.06;;;8.55;38.38
64078;BME280;51039;49.696;10.808;2023-04-04T08:10:08;99299.03;;;9.49;36.22
64078;BME280;51039;49.696;10.808;2023-04-04T08:12:33;99304.53;;;9.47;35.59
64078;BME280;51039;49.696;10.808;2023-04-04T08:14:59;99286.63;;;7.62;38.82
64078;BME280;51039;49.696;10.808;2023-04-04T08:17:24;99292.22;;;6.12;41.21
64078;BME280;51039;49.696;10.808;2023-04-04T08:19:50;99298.00;;;5.51;42.58
64078;BME280;51039;49.696;10.808;2023-04-04T08:22:15;99293.88;;;5.67;42.72
64078;BME280;51039;49.696;10.808;2023-04-04T08:24:40;99282.47;;;6.74;40.77
64078;BME280;51039;49.696;10.808;2023-04-04T08:27:06;99292.59;;;5.71;42.67
64078;BME280;51039;49.696;10.808;2023-04-04T08:29:32;99286.56;;;4.78;45.40
64078;BME280;51039;49.696;10.808;2023-04-04T08:31:58;99288.03;;;4.90;44.41
64078;BME280;51039;49.696;10.808;2023-04-04T08:34:23;99288.09;;;5.18;43.36
64078;BME280;51039;49.696;10.808;2023-04-04T08:36:49;99283.56;;;5.10;44.05
64078;BME280;51039;49.696;10.808;2023-04-04T08:39:14;99282.44;;;5.13;44.29
64078;BME280;51039;49.696;10.808;2023-04-04T08:41:39;99283.84;;;5.07;44.50
64078;BME280;51039;49.696;10.808;2023-04-04T08:44:07;99287.19;;;4.99;43.47
64078;BME280;51039;49.696;10.808;2023-04-04T08:46:37;99281.94;;;4.99;43.46
64078;BME280;51039;49.696;10.808;2023-04-04T08:49:02;99295.13;;;4.80;43.46
64078;BME280;51039;49.696;10.808;2023-04-04T08:51:28;99285.09;;;5.03;43.96
64078;BME280;51039;49.696;10.808;2023-04-04T08:53:56;99292.06;;;5.22;44.02
64078;BME280;51039;49.696;10.808;2023-04-04T08:56:24;99288.06;;;5.45;43.87
64078;BME280;51039;49.696;10.808;2023-04-04T08:58:50;99291.28;;;5.39;42.99
64078;BME280;51039;49.696;10.808;2023-04-04T09:01:15;99285.94;;;5.77;43.04
64078;BME280;51039;49.696;10.808;2023-04-04T09:03:41;99284.28;;;5.94;42.03
64078;BME280;51039;49.696;10.808;2023-04-04T09:06:07;99283.97;;;5.61;42.14
64078;BME280;51039;49.696;10.808;2023-04-04T09:08:33;99282.63;;;5.57;41.59
64078;BME280;51039;49.696;10.808;2023-04-04T09:11:00;99279.13;;;5.56;41.91
64078;BME280;51039;49.696;10.808;2023-04-04T09:13:27;99280.25;;;6.17;41.02
64078;BME280;51039;49.696;10.808;2023-04-04T09:15:52;99284.84;;;5.51;41.22
64078;BME280;51039;49.696;10.808;2023-04-04T09:18:19;99278.78;;;5.51;42.02
64078;BME280;51039;49.696;10.808;2023-04-04T09:20:47;99284.38;;;5.10;42.61
64078;BME280;51039;49.696;10.808;2023-04-04T09:23:14;99274.91;;;4.90;42.43
64078;BME280;51039;49.696;10.808;2023-04-04T09:25:53;99279.31;;;4.99;42.77
64078;BME280;51039;49.696;10.808;2023-04-04T09:28:20;99285.69;;;4.97;42.80
64078;BME280;51039;49.696;10.808;2023-04-04T09:30:50;99286.91;;;5.30;42.27
64078;BME280;51039;49.696;10.808;2023-04-04T09:33:16;99267.25;;;5.34;41.37
64078;BME280;51039;49.696;10.808;2023-04-04T09:36:05;99276.28;;;5.49;41.64
64078;BME280;51039;49.696;10.808;2023-04-04T09:38:31;99272.31;;;5.45;42.29
64078;BME280;51039;49.696;10.808;2023-04-04T09:41:00;99274.09;;;5.17;42.26
64078;BME280;51039;49.696;10.808;2023-04-04T09:43:26;99277.72;;;5.62;42.84
64078;BME280;51039;49.696;10.808;2023-04-04T09:45:54;99275.28;;;5.78;41.48
64078;BME280;51039;49.696;10.808;2023-04-04T09:48:27;99281.69;;;5.48;41.99
64078;BME280;51039;49.696;10.808;2023-04-04T09:50:56;99280.78;;;5.39;41.31
64078;BME280;51039;49.696;10.808;2023-04-04T09:53:42;99275.41;;;7.52;37.90
64078;BME280;51039;49.696;10.808;2023-04-04T09:56:12;99266.78;;;8.25;35.96
64078;BME280;51039;49.696;10.808;2023-04-04T09:58:38;99258.63;;;8.92;35.34
64078;BME280;51039;49.696;10.808;2023-04-04T10:01:07;99274.16;;;8.95;35.49
64078;BME280;51039;49.696;10.808;2023-04-04T10:03:34;99267.44;;;8.19;35.95
64078;BME280;51039;49.696;10.808;2023-04-04T10:06:02;99280.94;;;8.16;35.87
64078;BME280;51039;49.696;10.808;2023-04-04T10:08:29;99272.72;;;9.87;32.99
64078;BME280;51039;49.696;10.808;2023-04-04T10:10:56;99269.53;;;9.68;34.29
64078;BME280;51039;49.696;10.808;2023-04-04T10:13:27;99274.72;;;9.85;32.98
64078;BME280;51039;49.696;10.808;2023-04-04T10:15:55;99272.91;;;10.84;32.16
64078;BME280;51039;49.696;10.808;2023-04-04T10:18:22;99271.53;;;9.27;33.65
64078;BME280;51039;49.696;10.808;2023-04-04T10:20:49;99273.78;;;8.98;34.77
64078;BME280;51039;49.696;10.808;2023-04-04T10:23:15;99269.91;;;8.04;35.78
64078;BME280;51039;49.696;10.808;2023-04-04T10:25:43;99271.47;;;7.56;36.81
64078;BME280;51039;49.696;10.808;2023-04-04T10:28:09;99275.44;;;6.83;38.72
64078;BME280;51039;49.696;10.808;2023-04-04T10:30:36;99269.28;;;6.66;39.49
64078;BME280;51039;49.696;10.808;2023-04-04T10:33:06;99271.59;;;6.69;40.65
64078;BME280;51039;49.696;10.808;2023-04-04T10:35:39;99265.81;;;6.21;40.55
64078;BME280;51039;49.696;10.808;2023-04-04T10:38:07;99272.13;;;6.28;40.05
64078;BME280;51039;49.696;10.808;2023-04-04T10:40:34;99259.22;;;6.69;40.11
64078;BME280;51039;49.696;10.808;2023-04-04T10:43:03;99267.09;;;6.61;39.57
64078;BME280;51039;49.696;10.808;2023-04-04T10:45:32;99257.47;;;6.52;40.41
64078;BME280;51039;49.696;10.808;2023-04-04T10:48:02;99272.75;;;6.22;41.06
64078;BME280;51039;49.696;10.808;2023-04-04T10:50:28;99262.31;;;6.39;40.52
64078;BME280;51039;49.696;10.808;2023-04-04T10:52:55;99257.34;;;6.27;40.60
64078;BME280;51039;49.696;10.808;2023-04-04T10:55:23;99265.50;;;5.88;41.07
64078;BME280;51039;49.696;10.808;2023-04-04T10:57:49;99275.25;;;5.60;42.38
64078;BME280;51039;49.696;10.808;2023-04-04T11:00:19;99268.53;;;5.48;42.28
64078;BME280;51039;49.696;10.808;2023-04-04T11:05:17;99254.38;;;5.95;40.98
64078;BME280;51039;49.696;10.808;2023-04-04T11:08:03;99259.28;;;6.07;40.97
64078;BME280;51039;49.696;10.808;2023-04-04T11:10:37;99264.16;;;5.84;42.39
64078;BME280;51039;49.696;10.808;2023-04-04T11:16:00;99258.47;;;5.89;41.98
64078;BME280;51039;49.696;10.808;2023-04-04T11:21:04;99253.16;;;6.43;41.40
64078;BME280;51039;49.696;10.808;2023-04-04T11:23:59;99250.69;;;6.41;42.16
64078;BME280;51039;49.696;10.808;2023-04-04T11:28:51;99254.00;;;5.71;42.60
64078;BME280;51039;49.696;10.808;2023-04-04T11:31:21;99252.84;;;6.02;43.73
64078;BME280;51039;49.696;10.808;2023-04-04T11:33:55;99252.47;;;5.97;43.62
64078;BME280;51039;49.696;10.808;2023-04-04T11:41:47;99261.09;;;5.89;41.87
64078;BME280;51039;49.696;10.808;2023-04-04T11:44:19;99246.88;;;7.39;39.63
64078;BME280;51039;49.696;10.808;2023-04-04T11:46:55;99245.31;;;7.62;37.91
64078;BME280;51039;49.696;10.808;2023-04-04T11:49:27;99250.91;;;7.67;37.07
64078;BME280;51039;49.696;10.808;2023-04-04T11:51:54;99242.19;;;8.08;37.28
64078;BME280;51039;49.696;10.808;2023-04-04T11:54:21;99228.00;;;7.68;37.24
64078;BME280;51039;49.696;10.808;2023-04-04T11:56:46;99241.47;;;7.06;38.28
64078;BME280;51039;49.696;10.808;2023-04-04T11:59:12;99243.19;;;6.28;40.41
64078;BME280;51039;49.696;10.808;2023-04-04T12:01:41;99237.75;;;6.56;40.51
64078;BME280;51039;49.696;10.808;2023-04-04T12:04:07;99228.03;;;6.83;40.14
64078;BME280;51039;49.696;10.808;2023-04-04T12:06:33;99219.75;;;7.63;38.63
64078;BME280;51039;49.696;10.808;2023-04-04T12:09:02;99226.31;;;7.51;38.84
64078;BME280;51039;49.696;10.808;2023-04-04T12:11:29;99228.22;;;7.24;39.52
64078;BME280;51039;49.696;10.808;2023-04-04T12:13:57;99232.50;;;6.56;39.96
64078;BME280;51039;49.696;10.808;2023-04-04T12:16:23;99228.53;;;7.13;39.30
64078;BME280;51039;49.696;10.808;2023-04-04T12:18:49;99218.94;;;7.12;39.49
64078;BME280;51039;49.696;10.808;2023-04-04T12:21:14;99229.97;;;6.73;40.64
64078;BME280;51039;49.696;10.808;2023-04-04T12:23:39;99224.50;;;7.00;41.30
64078;BME280;51039;49.696;10.808;2023-04-04T12:26:05;99229.53;;;6.51;40.22
64078;BME280;51039;49.696;10.808;2023-04-04T12:28:35;99220.78;;;6.24;40.99
64078;BME280;51039;49.696;10.808;2023-04-04T12:31:03;99221.94;;;6.04;42.24
64078;BME280;51039;49.696;10.808;2023-04-04T12:33:33;99222.03;;;5.58;42.62
64078;BME280;51039;49.696;10.808;2023-04-04T12:36:00;99224.41;;;5.51;42.31
64078;BME280;51039;49.696;10.808;2023-04-04T12:38:29;99224.13;;;5.55;41.90
64078;BME280;51039;49.696;10.808;2023-04-04T12:40:55;99215.63;;;5.79;41.58
64078;BME280;51039;49.696;10.808;2023-04-04T12:43:21;99211.44;;;6.04;41.28
64078;BME280;51039;49.696;10.808;2023-04-04T12:45:48;99205.84;;;6.51;38.96
64078;BME280;51039;49.696;10.808;2023-04-04T12:48:15;99204.88;;;6.95;39.17
64078;BME280;51039;49.696;10.808;2023-04-04T12:50:57;99193.84;;;7.42;37.83
64078;BME280;51039;49.696;10.808;2023-04-04T12:53:28;99186.63;;;7.85;37.86
64078;BME280;51039;49.696;10.808;2023-04-04T12:55:54;99177.09;;;7.76;37.64
64078;BME280;51039;49.696;10.808;2023-04-04T12:58:24;99181.00;;;7.72;37.44
64078;BME280;51039;49.696;10.808;2023-04-04T13:00:50;99175.09;;;7.94;38.08
64078;BME280;51039;49.696;10.808;2023-04-04T13:03:18;99180.44;;;7.19;39.29
64078;BME280;51039;49.696;10.808;2023-04-04T13:05:46;99181.63;;;6.74;40.68
64078;BME280;51039;49.696;10.808;2023-04-04T13:08:12;99175.22;;;6.50;41.26